Time;durP1;ratioP1;P1;durP2;ratioP2;P2;SDS_P1;SDS_P2;PMS_P1;PMS_P2;Temp;Humidity;BMP_temperature;BMP_pressure;BME280_temperature;BME280_humidity;BME280_pressure;Samples;Min_cycle;Max_cycle;Signal;HPM_P1;HPM_P2
2022/01/06 00:01:05;;;;;;;5.87;1.53;;;;;;;-0.41;100.00;94229.84;5060763;28;20182;-73
2022/01/06 00:03:31;;;;;;;7.53;2.00;;;;;;;-0.38;100.00;94248.56;5069792;28;20191;-72
2022/01/06 00:06:01;;;;;;;6.50;1.63;;;;;;;-0.33;100.00;94236.63;5083807;28;20213;-73
2022/01/06 00:08:26;;;;;;;3.57;1.37;;;;;;;-0.42;100.00;94234.44;5061419;28;20202;-73
2022/01/06 00:10:52;;;;;;;10.93;1.60;;;;;;;-0.59;100.00;94238.09;5035570;28;20655;-73
2022/01/06 00:13:32;;;;;;;4.20;1.57;;;;;;;-0.64;100.00;94238.56;5070860;28;20205;-73
2022/01/06 00:16:13;;;;;;;3.97;1.20;;;;;;;-0.56;100.00;94231.94;5064596;28;20582;-73
2022/01/06 00:23:07;;;;;;;6.47;1.60;;;;;;;-0.44;100.00;94238.69;5055748;28;20674;-73
2022/01/06 00:24:08;;;;;;;2.30;1.30;;;;;;;-0.48;100.00;94238.75;5072572;28;20499;-73
2022/01/06 00:26:34;;;;;;;2.80;1.90;;;;;;;-0.64;100.00;94225.16;5076318;28;20197;-73
2022/01/06 00:28:59;;;;;;;4.83;1.57;;;;;;;-0.70;100.00;94229.44;5052268;28;20190;-73
2022/01/06 00:31:25;;;;;;;5.70;1.60;;;;;;;-0.61;100.00;94235.06;5061941;28;20557;-73
2022/01/06 00:33:51;;;;;;;8.37;1.70;;;;;;;-0.57;100.00;94240.38;5069277;28;20676;-73
2022/01/06 00:36:16;;;;;;;4.60;1.70;;;;;;;-0.61;100.00;94221.66;5078050;28;20823;-73
2022/01/06 00:38:42;;;;;;;3.63;1.40;;;;;;;-0.54;100.00;94231.53;5088973;28;20654;-73
2022/01/06 00:41:07;;;;;;;4.13;1.73;;;;;;;-0.80;100.00;94233.00;5052921;28;20675;-73
2022/01/06 00:43:33;;;;;;;8.57;1.83;;;;;;;-0.75;100.00;94231.81;5067202;28;20239;-73
2022/01/06 00:45:59;;;;;;;7.87;1.83;;;;;;;-0.75;100.00;94235.25;5068672;28;20198;-73
2022/01/06 00:48:24;;;;;;;6.53;1.93;;;;;;;-0.75;100.00;94232.56;5068612;28;20185;-73
2022/01/06 00:50:50;;;;;;;7.93;1.90;;;;;;;-0.69;100.00;94230.94;5081514;28;20200;-73
2022/01/06 00:53:16;;;;;;;5.77;2.07;;;;;;;-0.86;100.00;94229.25;5082024;28;20189;-73
2022/01/06 00:55:41;;;;;;;6.87;1.60;;;;;;;-0.85;100.00;94235.38;5083673;28;20216;-74
2022/01/06 00:58:08;;;;;;;5.83;2.00;;;;;;;-0.91;100.00;94228.91;5080103;28;20192;-73
2022/01/06 01:00:40;;;;;;;4.93;1.10;;;;;;;-0.96;100.00;94243.53;5071685;28;20192;-73
2022/01/06 01:03:23;;;;;;;8.17;1.60;;;;;;;-0.79;100.00;94245.25;5053515;28;20177;-73
2022/01/06 01:05:53;;;;;;;7.93;1.80;;;;;;;-0.77;100.00;94248.28;5074469;28;20193;-73
2022/01/06 01:08:18;;;;;;;6.70;1.73;;;;;;;-0.67;100.00;94235.91;5062301;28;20187;-73
2022/01/06 01:10:47;;;;;;;5.03;1.80;;;;;;;-0.63;100.00;94245.41;5069869;28;20247;-73
2022/01/06 01:13:13;;;;;;;6.40;1.83;;;;;;;-0.46;100.00;94263.22;5069749;28;20190;-73
2022/01/06 01:15:53;;;;;;;5.77;1.37;;;;;;;-0.56;100.00;94245.34;5052795;28;20206;-73
2022/01/06 01:18:20;;;;;;;6.93;1.83;;;;;;;-0.49;100.00;94250.63;5059345;28;20254;-74
2022/01/06 01:20:47;;;;;;;11.93;2.13;;;;;;;-0.45;100.00;94250.56;5070349;28;20178;-74
2022/01/06 01:23:13;;;;;;;12.43;2.17;;;;;;;-0.57;100.00;94235.03;5058175;28;20190;-73
2022/01/06 01:25:39;;;;;;;4.00;1.90;;;;;;;-0.64;100.00;94243.91;5071995;28;20301;-73
2022/01/06 01:28:04;;;;;;;2.83;1.53;;;;;;;-0.57;100.00;94264.50;5049348;28;20297;-74
2022/01/06 01:30:39;;;;;;;4.83;1.90;;;;;;;-0.43;100.00;94267.03;5049747;28;20197;-74
2022/01/06 01:33:13;;;;;;;4.97;1.60;;;;;;;-0.38;100.00;94271.94;5049649;28;20193;-74
2022/01/06 01:35:40;;;;;;;7.27;1.90;;;;;;;-0.41;100.00;94270.81;5051108;28;20210;-74
2022/01/06 01:38:07;;;;;;;6.43;1.50;;;;;;;-0.35;100.00;94260.41;5049751;28;20195;-74
2022/01/06 01:40:32;;;;;;;10.47;1.80;;;;;;;-0.41;100.00;94264.72;5066730;28;20201;-74
2022/01/06 01:42:58;;;;;;;6.50;1.83;;;;;;;-0.23;100.00;94284.00;5067474;28;20195;-74
2022/01/06 01:45:29;;;;;;;6.57;1.83;;;;;;;-0.32;100.00;94273.00;5051405;28;20207;-74
2022/01/06 01:47:57;;;;;;;9.10;1.60;;;;;;;-0.37;100.00;94276.91;5055089;28;20637;-74
2022/01/06 01:50:23;;;;;;;4.63;2.03;;;;;;;-0.30;100.00;94279.50;5033288;28;20670;-74
2022/01/06 01:52:52;;;;;;;4.63;1.70;;;;;;;-0.22;100.00;94283.59;5056788;28;20555;-74
2022/01/06 01:55:26;;;;;;;3.43;1.60;;;;;;;-0.09;100.00;94281.16;5079041;28;20708;-74
2022/01/06 01:57:52;;;;;;;5.17;1.40;;;;;;;-0.28;100.00;94279.88;5069494;28;20782;-74
2022/01/06 02:00:20;;;;;;;2.80;1.43;;;;;;;-0.30;100.00;94276.81;5072897;28;20185;-74
2022/01/06 02:02:46;;;;;;;5.30;1.63;;;;;;;-0.32;100.00;94281.81;5090454;28;20193;-74
2022/01/06 02:05:11;;;;;;;6.10;1.30;;;;;;;-0.51;100.00;94270.97;5078395;28;20577;-74
2022/01/06 02:07:40;;;;;;;3.27;1.50;;;;;;;-0.33;100.00;94277.63;5048966;28;20190;-74
2022/01/06 02:10:09;;;;;;;3.47;1.37;;;;;;;-0.20;100.00;94283.97;5052131;28;20499;-74
2022/01/06 02:12:38;;;;;;;6.27;1.63;;;;;;;-0.37;100.00;94274.22;5076834;28;20506;-74
2022/01/06 02:15:09;;;;;;;5.00;1.23;;;;;;;-0.19;100.00;94288.16;5071044;28;20308;-74
2022/01/06 02:17:36;;;;;;;5.07;1.60;;;;;;;-0.11;100.00;94299.56;5068584;28;20212;-75
2022/01/06 02:20:07;;;;;;;2.23;1.20;;;;;;;-0.13;100.00;94294.63;5067034;28;20277;-74
2022/01/06 02:22:33;;;;;;;4.77;1.50;;;;;;;-0.25;100.00;94297.06;5050673;28;20189;-74
2022/01/06 02:25:27;;;;;;;2.47;1.30;;;;;;;-0.08;100.00;94304.13;5080689;28;20202;-74
2022/01/06 02:27:53;;;;;;;4.27;0.93;;;;;;;-0.35;100.00;94295.28;5065740;28;20185;-74
2022/01/06 02:30:22;;;;;;;3.43;1.37;;;;;;;-0.22;100.00;94297.03;5074197;28;20699;-74
2022/01/06 02:32:48;;;;;;;2.10;1.20;;;;;;;-0.34;100.00;94294.13;5069994;28;20208;-74
2022/01/06 02:35:19;;;;;;;6.53;1.40;;;;;;;-0.22;100.00;94296.28;5069924;28;20305;-74
2022/01/06 02:37:46;;;;;;;2.13;1.40;;;;;;;-0.22;100.00;94299.69;5053949;28;20191;-74
2022/01/06 02:40:15;;;;;;;4.93;1.70;;;;;;;-0.19;100.00;94300.84;5053120;28;20186;-74
2022/01/06 02:42:55;;;;;;;3.63;1.30;;;;;;;-0.28;100.00;94281.78;5079212;28;20320;-74
2022/01/06 02:45:25;;;;;;;2.10;1.10;;;;;;;-0.42;100.00;94290.00;5043298;28;20205;-74
2022/01/06 02:47:50;;;;;;;4.87;1.07;;;;;;;-0.51;100.00;94298.53;5073529;28;20197;-74
2022/01/06 02:50:17;;;;;;;7.47;1.70;;;;;;;-0.36;100.00;94307.19;5074519;28;20190;-74
2022/01/06 02:52:43;;;;;;;6.40;1.53;;;;;;;-0.20;100.00;94296.63;5074656;28;20253;-74
2022/01/06 02:55:12;;;;;;;2.87;1.30;;;;;;;-0.23;100.00;94308.94;5083625;28;20300;-74
2022/01/06 02:57:38;;;;;;;2.87;1.20;;;;;;;-0.38;100.00;94302.22;5067025;28;20277;-74
2022/01/06 03:00:09;;;;;;;3.50;1.27;;;;;;;-0.44;100.00;94308.44;5076773;28;20201;-74
2022/01/06 03:02:35;;;;;;;1.60;1.10;;;;;;;-0.38;100.00;94309.50;5067662;28;20257;-74
2022/01/06 03:05:02;;;;;;;7.77;1.50;;;;;;;-0.36;100.00;94315.22;5071221;28;20357;-74
2022/01/06 03:07:28;;;;;;;5.00;1.57;;;;;;;-0.44;100.00;94311.13;5053901;28;20187;-74
2022/01/06 03:09:56;;;;;;;2.10;1.10;;;;;;;-0.50;100.00;94318.06;5052160;28;20183;-74
2022/01/06 03:12:32;;;;;;;2.00;1.03;;;;;;;-0.56;100.00;94322.34;5053747;28;20193;-74
2022/01/06 03:14:58;;;;;;;5.47;1.53;;;;;;;-0.55;100.00;94321.19;5062611;28;20682;-74
2022/01/06 03:17:24;;;;;;;3.17;1.20;;;;;;;-0.45;100.00;94326.44;5083171;28;20270;-74
2022/01/06 03:19:53;;;;;;;3.50;1.30;;;;;;;-0.46;100.00;94332.94;5035874;28;20267;-73
2022/01/06 03:22:18;;;;;;;3.57;1.30;;;;;;;-0.39;100.00;94330.19;5055319;28;20198;-74
2022/01/06 03:24:44;;;;;;;6.90;1.77;;;;;;;-0.49;100.00;94336.44;5079667;28;20221;-73
2022/01/06 03:27:10;;;;;;;4.80;1.50;;;;;;;-0.51;100.00;94338.75;5068425;28;20198;-74
2022/01/06 03:29:35;;;;;;;6.13;1.47;;;;;;;-0.55;100.00;94342.63;5066243;28;20190;-74
2022/01/06 03:32:02;;;;;;;3.30;1.37;;;;;;;-0.29;100.00;94345.38;5060440;28;20224;-74
2022/01/06 03:34:31;;;;;;;5.23;1.70;;;;;;;-0.34;100.00;94326.31;5078959;28;20221;-73
2022/01/06 03:36:58;;;;;;;3.57;1.03;;;;;;;-0.41;100.00;94342.50;5055295;28;20190;-73
2022/01/06 03:39:24;;;;;;;2.37;1.37;;;;;;;-0.51;100.00;94352.16;5056948;28;20198;-73
2022/01/06 03:41:50;;;;;;;3.00;1.20;;;;;;;-0.55;100.00;94331.91;5063326;28;20352;-73
2022/01/06 03:44:16;;;;;;;5.47;1.97;;;;;;;-0.53;100.00;94343.78;5059612;28;20218;-74
2022/01/06 03:46:42;;;;;;;2.33;1.30;;;;;;;-0.37;100.00;94352.00;5043308;28;20199;-74
2022/01/06 03:49:07;;;;;;;4.40;1.83;;;;;;;-0.50;100.00;94353.69;5057217;28;20189;-74
2022/01/06 03:51:33;;;;;;;7.43;1.40;;;;;;;-0.51;100.00;94356.78;5071342;28;20200;-74
2022/01/06 03:53:59;;;;;;;4.63;2.03;;;;;;;-0.47;100.00;94354.81;5053354;28;20312;-74
2022/01/06 03:56:25;;;;;;;5.40;1.40;;;;;;;-0.39;100.00;94362.38;5059069;28;20306;-74
2022/01/06 03:58:50;;;;;;;4.17;1.47;;;;;;;-0.43;100.00;94359.00;5064180;28;20193;-74
2022/01/06 04:01:16;;;;;;;7.77;1.77;;;;;;;-0.42;100.00;94357.81;5058545;28;20267;-74
2022/01/06 04:03:44;;;;;;;7.40;1.93;;;;;;;-0.51;100.00;94357.53;5059660;28;20278;-74
2022/01/06 04:06:10;;;;;;;1.00;0.90;;;;;;;-0.49;100.00;94365.16;5068076;28;20217;-74
2022/01/06 04:08:36;;;;;;;6.40;1.50;;;;;;;-0.51;100.00;94368.25;5087050;28;20189;-74
2022/01/06 04:11:03;;;;;;;2.10;1.20;;;;;;;-0.58;100.00;94356.84;5070752;28;20616;-74
2022/01/06 04:13:29;;;;;;;3.87;1.47;;;;;;;-0.49;100.00;94359.81;5050505;28;20195;-74
2022/01/06 04:15:56;;;;;;;3.73;1.60;;;;;;;-0.51;100.00;94364.81;5071950;28;20237;-74
2022/01/06 04:18:21;;;;;;;3.33;1.30;;;;;;;-0.51;100.00;94372.88;5057526;28;20217;-74
2022/01/06 04:20:47;;;;;;;2.13;1.07;;;;;;;-0.51;100.00;94372.88;5062180;28;20212;-74
2022/01/06 04:23:13;;;;;;;4.67;1.33;;;;;;;-0.74;100.00;94362.75;5073641;28;20280;-74
2022/01/06 04:25:38;;;;;;;4.23;1.53;;;;;;;-0.63;100.00;94376.78;5084915;28;20209;-74
2022/01/06 04:28:04;;;;;;;5.47;1.13;;;;;;;-0.69;100.00;94378.41;5082710;28;20292;-73
2022/01/06 04:30:30;;;;;;;5.97;1.47;;;;;;;-0.52;100.00;94387.41;5063889;28;20193;-74
2022/01/06 04:32:56;;;;;;;1.93;1.10;;;;;;;-0.39;100.00;94385.78;5055608;28;20194;-74
2022/01/06 04:35:21;;;;;;;4.37;1.37;;;;;;;-0.39;100.00;94388.44;5051222;28;20226;-74
2022/01/06 04:37:47;;;;;;;4.53;1.67;;;;;;;-0.44;100.00;94386.22;5048746;28;20185;-73
2022/01/06 04:40:13;;;;;;;6.37;1.57;;;;;;;-0.64;100.00;94394.06;5073444;28;20314;-73
2022/01/06 04:42:38;;;;;;;2.07;1.10;;;;;;;-0.46;100.00;94388.53;5073572;28;20281;-74
2022/01/06 04:45:05;;;;;;;3.67;1.40;;;;;;;-0.45;100.00;94392.72;5033854;28;20256;-74
2022/01/06 04:47:31;;;;;;;6.00;1.77;;;;;;;-0.51;100.00;94397.75;5061858;28;20556;-74
2022/01/06 04:49:56;;;;;;;5.37;1.67;;;;;;;-0.59;100.00;94387.50;5062977;28;20202;-74
2022/01/06 04:52:22;;;;;;;3.50;1.40;;;;;;;-0.55;100.00;94402.41;5057433;28;20205;-73
2022/01/06 04:54:47;;;;;;;3.63;1.37;;;;;;;-0.54;100.00;94393.19;5066575;28;20230;-74
2022/01/06 04:57:13;;;;;;;2.10;1.10;;;;;;;-0.65;100.00;94405.94;5076154;28;20193;-74
2022/01/06 04:59:39;;;;;;;5.43;1.07;;;;;;;-0.68;100.00;94393.31;5072026;28;20247;-74
2022/01/06 05:02:05;;;;;;;4.40;1.50;;;;;;;-0.55;100.00;94415.03;5063427;28;20206;-73
2022/01/06 05:04:30;;;;;;;2.37;1.50;;;;;;;-0.58;100.00;94400.53;5069596;28;20555;-74
2022/01/06 05:06:56;;;;;;;4.73;1.70;;;;;;;-0.44;100.00;94405.72;5066790;28;20192;-73
2022/01/06 05:09:22;;;;;;;2.83;1.40;;;;;;;-0.56;100.00;94405.47;5053037;28;20698;-73
2022/01/06 05:11:48;;;;;;;3.87;1.40;;;;;;;-0.41;100.00;94426.38;5061129;28;20730;-74
2022/01/06 05:14:13;;;;;;;3.73;1.10;;;;;;;-0.55;100.00;94407.00;5067811;28;20877;-74
2022/01/06 05:16:39;;;;;;;4.80;1.53;;;;;;;-0.38;100.00;94420.25;5067175;28;20660;-74
2022/01/06 05:19:05;;;;;;;4.07;1.10;;;;;;;-0.40;100.00;94430.59;5058434;28;20190;-74
2022/01/06 05:21:32;;;;;;;4.43;1.60;;;;;;;-0.56;100.00;94422.31;5057413;28;20642;-74
2022/01/06 05:23:58;;;;;;;1.90;1.47;;;;;;;-0.63;100.00;94424.31;5064910;28;20245;-74
2022/01/06 05:26:23;;;;;;;4.77;1.43;;;;;;;-0.49;100.00;94424.94;5075053;28;20675;-74
2022/01/06 05:28:50;;;;;;;3.20;1.40;;;;;;;-0.49;100.00;94422.25;5052870;28;20575;-74
2022/01/06 05:31:15;;;;;;;5.43;1.47;;;;;;;-0.34;100.00;94433.63;5056728;28;20197;-74
2022/01/06 05:33:41;;;;;;;2.63;1.73;;;;;;;-0.34;100.00;94423.63;5061289;28;20580;-74
2022/01/06 05:36:07;;;;;;;3.43;1.23;;;;;;;-0.60;100.00;94413.56;5072737;28;20204;-74
2022/01/06 05:38:33;;;;;;;3.27;1.07;;;;;;;-0.65;100.00;94422.03;5059447;28;20228;-74
2022/01/06 05:40:58;;;;;;;4.50;1.20;;;;;;;-0.80;100.00;94411.81;5061182;28;20558;-74
2022/01/06 05:43:25;;;;;;;2.00;1.30;;;;;;;-0.79;100.00;94416.03;5089760;28;20196;-74
2022/01/06 05:45:53;;;;;;;3.40;1.20;;;;;;;-0.50;100.00;94412.69;5090990;28;20213;-74
2022/01/06 05:48:19;;;;;;;3.33;0.93;;;;;;;-0.65;100.00;94414.00;5059852;28;20203;-74
2022/01/06 05:50:48;;;;;;;4.77;1.10;;;;;;;-0.79;100.00;94392.66;5079360;28;20198;-74
2022/01/06 05:53:15;;;;;;;2.73;1.10;;;;;;;-0.69;100.00;94412.47;5049221;28;20214;-74
2022/01/06 05:55:41;;;;;;;3.47;1.07;;;;;;;-0.86;100.00;94408.81;5076223;28;20220;-74
2022/01/06 05:58:07;;;;;;;1.97;1.03;;;;;;;-0.94;100.00;94414.63;5060834;28;20224;-74
2022/01/06 06:00:33;;;;;;;1.83;0.90;;;;;;;-0.77;100.00;94419.06;5050130;28;20229;-74
2022/01/06 06:02:58;;;;;;;2.60;1.37;;;;;;;-0.83;100.00;94416.06;5069339;28;20327;-74
2022/01/06 06:05:25;;;;;;;2.13;0.80;;;;;;;-0.88;100.00;94431.81;5066211;28;20316;-74
2022/01/06 06:07:51;;;;;;;2.70;1.30;;;;;;;-0.92;100.00;94431.06;5081457;28;20192;-74
2022/01/06 06:10:16;;;;;;;5.57;1.10;;;;;;;-0.90;100.00;94450.94;5090256;28;20189;-73
2022/01/06 06:12:42;;;;;;;2.17;1.17;;;;;;;-0.83;100.00;94440.16;5080176;28;20201;-74
2022/01/06 06:15:08;;;;;;;1.80;1.20;;;;;;;-0.71;100.00;94469.19;5065817;28;20299;-74
2022/01/06 06:17:34;;;;;;;3.47;1.07;;;;;;;-0.83;100.00;94447.47;5046997;28;20271;-74
2022/01/06 06:20:00;;;;;;;1.83;1.00;;;;;;;-0.84;100.00;94453.97;5049296;28;20221;-74
2022/01/06 06:22:25;;;;;;;2.37;1.00;;;;;;;-0.74;100.00;94456.56;5055146;28;20205;-74
2022/01/06 06:24:51;;;;;;;1.83;1.10;;;;;;;-0.58;100.00;94445.34;5055280;28;20201;-74
2022/01/06 06:27:17;;;;;;;5.93;1.27;;;;;;;-0.62;100.00;94453.41;5081550;28;20203;-74
2022/01/06 06:29:42;;;;;;;3.47;1.07;;;;;;;-0.66;100.00;94463.41;5057187;28;20276;-74
2022/01/06 06:32:08;;;;;;;1.97;1.03;;;;;;;-0.62;100.00;94448.06;5051968;28;20255;-74
2022/01/06 06:34:34;;;;;;;0.80;0.80;;;;;;;-0.59;100.00;94467.94;5063162;28;20222;-74
2022/01/06 06:36:59;;;;;;;2.53;1.10;;;;;;;-0.43;100.00;94466.28;5050306;28;20187;-74
2022/01/06 06:39:28;;;;;;;2.50;1.20;;;;;;;-0.33;100.00;94460.03;5069689;28;20221;-74
2022/01/06 06:41:53;;;;;;;1.50;0.80;;;;;;;-0.33;100.00;94459.28;5067320;28;20283;-74
2022/01/06 06:44:19;;;;;;;4.27;1.23;;;;;;;-0.54;100.00;94449.50;5068940;28;20189;-74
2022/01/06 06:46:45;;;;;;;3.83;1.90;;;;;;;-0.52;100.00;94473.22;5032289;28;20205;-74
2022/01/06 06:49:10;;;;;;;1.73;1.27;;;;;;;-0.45;100.00;94470.50;5049145;28;20198;-74
2022/01/06 06:51:37;;;;;;;2.83;1.37;;;;;;;-0.54;100.00;94479.00;5061205;28;20194;-74
2022/01/06 06:54:03;;;;;;;1.63;0.97;;;;;;;-0.39;100.00;94482.34;5067333;28;20223;-74
2022/01/06 06:56:29;;;;;;;2.87;1.33;;;;;;;-0.50;100.00;94460.97;5067035;28;20211;-74
2022/01/06 06:58:54;;;;;;;2.67;0.97;;;;;;;-0.45;100.00;94481.22;5058929;28;20197;-74
2022/01/06 07:01:20;;;;;;;2.50;1.10;;;;;;;-0.41;100.00;94476.59;5065050;28;20186;-74
2022/01/06 07:03:46;;;;;;;2.07;1.07;;;;;;;-0.31;100.00;94481.88;5032834;28;20183;-74
2022/01/06 07:06:11;;;;;;;1.27;0.80;;;;;;;-0.44;100.00;94486.19;5068231;28;20272;-74
2022/01/06 07:08:37;;;;;;;2.80;1.13;;;;;;;-0.60;100.00;94493.22;5050695;28;20191;-74
2022/01/06 07:11:02;;;;;;;1.47;0.93;;;;;;;-0.39;100.00;94495.75;5052782;28;20198;-74
2022/01/06 07:13:28;;;;;;;2.03;1.17;;;;;;;-0.40;100.00;94496.88;5062482;28;20682;-73
2022/01/06 07:15:54;;;;;;;2.10;0.97;;;;;;;-0.42;100.00;94494.59;5090452;28;20201;-73
2022/01/06 07:18:20;;;;;;;3.50;1.17;;;;;;;-0.50;100.00;94500.44;5068455;28;20612;-74
2022/01/06 07:20:46;;;;;;;5.63;1.10;;;;;;;-0.43;100.00;94503.06;5074175;28;20671;-74
2022/01/06 07:23:13;;;;;;;2.33;1.07;;;;;;;-0.42;100.00;94505.34;5068098;28;20213;-74
2022/01/06 07:25:39;;;;;;;2.20;0.90;;;;;;;-0.49;100.00;94504.63;5063808;28;20554;-74
2022/01/06 07:28:05;;;;;;;1.87;0.97;;;;;;;-0.48;100.00;94506.94;5037485;28;20191;-74
2022/01/06 07:30:33;;;;;;;1.23;0.80;;;;;;;-0.47;100.00;94513.03;5064554;28;20190;-74
2022/01/06 07:33:00;;;;;;;2.87;1.43;;;;;;;-0.48;100.00;94509.63;5071867;28;20280;-74
2022/01/06 07:35:26;;;;;;;3.60;1.07;;;;;;;-0.52;100.00;94511.53;5072929;28;20299;-74
2022/01/06 07:37:51;;;;;;;1.83;0.90;;;;;;;-0.36;100.00;94513.72;5070453;28;20190;-74
2022/01/06 07:40:19;;;;;;;1.10;0.87;;;;;;;-0.43;100.00;94519.91;5074024;28;20643;-74
2022/01/06 07:42:45;;;;;;;1.73;1.10;;;;;;;-0.43;100.00;94522.59;5087137;28;20217;-75
2022/01/06 07:45:11;;;;;;;3.27;1.40;;;;;;;-0.39;100.00;94526.00;5072435;28;20208;-75
2022/01/06 07:47:43;;;;;;;2.10;1.00;;;;;;;-0.34;100.00;94533.59;5048093;28;20197;-74
2022/01/06 07:50:09;;;;;;;5.27;1.33;;;;;;;-0.30;100.00;94533.59;5067756;28;20208;-74
2022/01/06 07:52:35;;;;;;;1.10;1.00;;;;;;;-0.43;100.00;94535.22;5089684;28;20219;-74
2022/01/06 07:55:01;;;;;;;1.33;0.90;;;;;;;-0.17;100.00;94546.13;5074513;28;20225;-74
2022/01/06 07:57:26;;;;;;;1.93;1.17;;;;;;;-0.20;100.00;94541.53;5063136;28;20601;-74
2022/01/06 07:59:52;;;;;;;2.43;0.93;;;;;;;-0.23;100.00;94545.03;5068600;28;20298;-74
2022/01/06 08:02:18;;;;;;;1.63;0.67;;;;;;;-0.19;100.00;94553.06;5071101;28;20209;-74
2022/01/06 08:04:43;;;;;;;3.37;1.30;;;;;;;-0.20;100.00;94548.81;5058789;28;20584;-74
2022/01/06 08:07:09;;;;;;;10.47;1.40;;;;;;;-0.19;100.00;94547.69;5080577;28;20267;-74
2022/01/06 08:09:35;;;;;;;2.53;1.00;;;;;;;-0.21;100.00;94544.63;5061140;28;20190;-74
2022/01/06 08:12:01;;;;;;;2.80;0.97;;;;;;;-0.23;100.00;94553.06;5071527;28;20242;-73
2022/01/06 08:14:27;;;;;;;1.27;0.90;;;;;;;-0.29;100.00;94551.97;5058419;28;20226;-73
2022/01/06 08:16:52;;;;;;;2.17;1.40;;;;;;;-0.31;100.00;94562.34;5056552;28;20194;-73
2022/01/06 08:19:18;;;;;;;2.20;1.23;;;;;;;-0.39;100.00;94560.13;5059604;28;20205;-73
2022/01/06 08:21:44;;;;;;;2.40;1.20;;;;;;;-0.35;100.00;94574.25;5069969;28;20194;-74
2022/01/06 08:24:10;;;;;;;3.23;1.00;;;;;;;-0.30;100.00;94563.09;5055479;28;20228;-74
2022/01/06 08:26:36;;;;;;;2.13;0.93;;;;;;;-0.22;100.00;94562.63;5078166;28;20270;-74
2022/01/06 08:29:02;;;;;;;4.20;1.33;;;;;;;-0.07;100.00;94566.72;5070998;28;20190;-74
2022/01/06 08:31:27;;;;;;;1.87;0.97;;;;;;;-0.13;100.00;94565.63;5050368;28;20198;-74
2022/01/06 08:33:53;;;;;;;3.83;1.43;;;;;;;-0.20;100.00;94564.91;5052666;28;20257;-74
2022/01/06 08:36:18;;;;;;;2.70;1.17;;;;;;;-0.03;100.00;94578.19;5054703;28;20205;-74
2022/01/06 08:38:47;;;;;;;3.73;1.60;;;;;;;-0.03;100.00;94578.19;5070954;28;20355;-74
2022/01/06 08:41:13;;;;;;;2.43;1.40;;;;;;;-0.11;100.00;94581.34;5069115;28;20288;-74
2022/01/06 08:43:39;;;;;;;4.13;1.80;;;;;;;-0.03;100.00;94586.25;5079291;28;20186;-74
2022/01/06 08:46:05;;;;;;;5.87;1.30;;;;;;;-0.16;100.00;94577.16;5052470;28;20296;-73
2022/01/06 08:48:31;;;;;;;2.73;1.30;;;;;;;-0.11;100.00;94584.03;5062099;28;20193;-74
2022/01/06 08:50:57;;;;;;;2.77;1.30;;;;;;;-0.13;100.00;94592.47;5071994;28;20220;-73
2022/01/06 08:53:23;;;;;;;2.10;1.43;;;;;;;-0.08;100.00;94589.38;5064693;28;20194;-73
2022/01/06 08:55:49;;;;;;;4.87;1.33;;;;;;;-0.08;100.00;94594.72;5077205;28;20340;-73
2022/01/06 08:58:15;;;;;;;4.10;1.30;;;;;;;-0.11;100.00;94590.16;5045300;28;20296;-73
2022/01/06 09:00:41;;;;;;;3.90;1.33;;;;;;;0.06;100.00;94582.34;5081884;28;20204;-73
2022/01/06 09:03:09;;;;;;;2.50;1.03;;;;;;;0.22;100.00;94601.38;5059494;28;20631;-73
2022/01/06 09:05:35;;;;;;;2.17;1.20;;;;;;;0.32;100.00;94608.56;5062398;28;20529;-74
2022/01/06 09:08:01;;;;;;;2.30;1.50;;;;;;;0.38;100.00;94609.63;5069006;28;20604;-73
2022/01/06 09:10:32;;;;;;;3.27;1.30;;;;;;;0.30;100.00;94610.88;5056708;28;20264;-73
2022/01/06 09:12:58;;;;;;;3.43;1.30;;;;;;;0.33;100.00;94607.38;5060987;28;20287;-74
2022/01/06 09:15:24;;;;;;;2.67;1.30;;;;;;;0.39;100.00;94605.81;5062463;28;20627;-74
2022/01/06 09:17:50;;;;;;;5.40;1.33;;;;;;;0.31;100.00;94607.78;5062036;28;20600;-73
2022/01/06 09:20:16;;;;;;;2.60;1.30;;;;;;;0.44;100.00;94602.69;5050853;28;20216;-74
2022/01/06 09:22:44;;;;;;;2.27;1.20;;;;;;;0.59;100.00;94609.44;5070135;28;20547;-74
2022/01/06 09:25:12;;;;;;;3.33;1.60;;;;;;;0.74;100.00;94608.13;5074674;28;20249;-74
2022/01/06 09:27:37;;;;;;;4.33;1.40;;;;;;;0.68;100.00;94605.09;5064495;28;20193;-73
2022/01/06 09:30:04;;;;;;;3.83;1.37;;;;;;;0.86;100.00;94610.28;5051567;28;20724;-74
2022/01/06 09:32:30;;;;;;;2.57;1.33;;;;;;;0.67;100.00;94614.34;5056608;28;20189;-74
2022/01/06 09:34:55;;;;;;;4.87;1.40;;;;;;;0.41;100.00;94592.75;5081983;28;20581;-74
2022/01/06 09:37:22;;;;;;;3.40;1.50;;;;;;;0.42;100.00;94605.00;5056555;28;20742;-74
2022/01/06 09:39:50;;;;;;;3.67;1.30;;;;;;;0.43;100.00;94615.34;5053024;28;20263;-74
2022/01/06 09:42:18;;;;;;;1.67;1.30;;;;;;;0.60;100.00;94605.56;5067104;28;20229;-74
2022/01/06 09:44:46;;;;;;;3.07;1.60;;;;;;;0.86;100.00;94621.81;5066412;28;20221;-74
2022/01/06 09:47:12;;;;;;;3.93;1.70;;;;;;;1.18;100.00;94619.50;5052756;28;20202;-74
2022/01/06 09:49:42;;;;;;;1.70;1.13;;;;;;;1.24;100.00;94617.09;5053591;28;20202;-73
2022/01/06 09:52:08;;;;;;;3.67;1.23;;;;;;;1.14;100.00;94609.91;5062279;28;20315;-73
2022/01/06 09:54:36;;;;;;;2.70;1.40;;;;;;;1.16;100.00;94616.44;5062032;28;20392;-73
2022/01/06 09:57:02;;;;;;;4.20;1.83;;;;;;;1.41;100.00;94626.13;5070028;28;20185;-73
2022/01/06 09:59:28;;;;;;;2.70;1.50;;;;;;;1.35;100.00;94625.78;5064612;28;20236;-74
2022/01/06 10:01:54;;;;;;;5.20;1.67;;;;;;;1.19;100.00;94628.28;5061841;28;20222;-73
2022/01/06 10:04:28;;;;;;;2.73;1.37;;;;;;;1.13;100.00;94633.38;5058864;28;20290;-74
2022/01/06 10:07:15;;;;;;;2.97;1.60;;;;;;;1.08;100.00;94633.06;5061047;28;20188;-74
2022/01/06 10:09:41;;;;;;;2.90;1.40;;;;;;;0.98;100.00;94634.72;5061714;28;20197;-73
2022/01/06 10:12:11;;;;;;;3.73;1.53;;;;;;;0.84;100.00;94637.56;5077910;28;20193;-73
2022/01/06 10:14:51;;;;;;;1.30;0.90;;;;;;;0.79;100.00;94639.91;5062663;28;20296;-74
2022/01/06 10:17:30;;;;;;;3.90;1.40;;;;;;;0.91;100.00;94640.19;5063284;28;20193;-74
2022/01/06 10:19:55;;;;;;;2.47;1.50;;;;;;;1.14;100.00;94651.03;5062557;28;20197;-73
2022/01/06 10:22:22;;;;;;;4.20;1.60;;;;;;;1.44;100.00;94641.44;5055807;28;20183;-74
2022/01/06 10:24:50;;;;;;;1.40;1.10;;;;;;;1.35;100.00;94641.16;5067738;28;20217;-74
2022/01/06 10:27:23;;;;;;;5.00;2.13;;;;;;;1.44;100.00;94639.50;5059448;28;20222;-74
2022/01/06 10:29:52;;;;;;;3.37;1.53;;;;;;;1.56;100.00;94640.88;5047886;28;20704;-73
2022/01/06 10:32:20;;;;;;;3.10;1.30;;;;;;;1.39;100.00;94648.03;5072748;28;20205;-73
2022/01/06 10:34:49;;;;;;;2.93;1.37;;;;;;;1.31;100.00;94645.84;5069853;28;20225;-73
2022/01/06 10:37:21;;;;;;;2.00;1.27;;;;;;;1.49;100.00;94651.75;5077880;28;20209;-74
2022/01/06 10:39:48;;;;;;;6.57;1.60;;;;;;;1.44;100.00;94647.59;5083900;28;20215;-74
2022/01/06 10:42:14;;;;;;;7.70;1.90;;;;;;;1.38;100.00;94645.72;5063277;28;20699;-74
2022/01/06 10:44:49;;;;;;;4.27;1.30;;;;;;;1.36;100.00;94645.41;5068322;28;20293;-74
2022/01/06 10:47:31;;;;;;;6.53;1.40;;;;;;;1.36;100.00;94653.47;5080672;28;20231;-73
2022/01/06 10:50:11;;;;;;;5.13;1.73;;;;;;;1.54;100.00;94652.06;5062429;28;20838;-74
2022/01/06 10:52:41;;;;;;;5.37;1.80;;;;;;;1.67;100.00;94649.56;5068382;28;20190;-74
2022/01/06 10:55:31;;;;;;;2.80;1.47;;;;;;;1.89;100.00;94650.78;5059167;28;21029;-74
2022/01/06 10:58:01;;;;;;;3.77;1.50;;;;;;;1.98;100.00;94661.81;5082626;28;20184;-74
2022/01/06 11:00:32;;;;;;;3.87;2.00;;;;;;;1.80;100.00;94656.69;5073521;28;20194;-74
2022/01/06 11:03:19;;;;;;;3.53;1.70;;;;;;;1.80;100.00;94658.63;5075059;28;20601;-74
2022/01/06 11:05:46;;;;;;;4.57;1.70;;;;;;;1.96;100.00;94656.84;5079210;28;20205;-74
2022/01/06 11:08:16;;;;;;;2.27;1.77;;;;;;;2.09;100.00;94670.47;5059225;28;20258;-75
2022/01/06 11:10:48;;;;;;;3.13;1.73;;;;;;;2.03;100.00;94648.66;5057280;28;20266;-74
2022/01/06 11:13:14;;;;;;;3.17;1.63;;;;;;;1.90;100.00;94657.72;5062613;28;20205;-73
2022/01/06 11:15:41;;;;;;;3.57;1.97;;;;;;;1.56;100.00;94668.53;5080629;28;20222;-73
2022/01/06 11:18:07;;;;;;;2.03;1.50;;;;;;;1.53;100.00;94671.31;5068688;28;20256;-73
2022/01/06 11:20:33;;;;;;;4.53;2.30;;;;;;;1.10;100.00;94681.81;5061683;28;20229;-73
2022/01/06 11:23:01;;;;;;;3.87;2.20;;;;;;;0.84;100.00;94677.09;5064014;28;20284;-73
2022/01/06 11:25:35;;;;;;;5.53;1.67;;;;;;;0.76;100.00;94679.13;5074387;28;20205;-73
2022/01/06 11:28:06;;;;;;;3.00;2.03;;;;;;;0.88;100.00;94681.28;5070484;28;20222;-73
2022/01/06 11:31:11;;;;;;;5.77;2.17;;;;;;;1.05;100.00;94677.63;5078188;28;20204;-73